sensor_id;sensor_type;location;lat;lon;timestamp;temperature;humidity
22006;DHT22;11167;46.988;15.470;2023-04-27T00:01:28;12.60;66.70
22006;DHT22;11167;46.988;15.470;2023-04-27T00:03:29;12.60;66.60
22006;DHT22;11167;46.988;15.470;2023-04-27T00:05:34;12.50;66.60
22006;DHT22;11167;46.988;15.470;2023-04-27T00:07:36;12.50;66.60
22006;DHT22;11167;46.988;15.470;2023-04-27T00:09:37;12.50;66.80
22006;DHT22;11167;46.988;15.470;2023-04-27T00:11:38;12.50;66.70
22006;DHT22;11167;46.988;15.470;2023-04-27T00:13:39;12.40;66.60
22006;DHT22;11167;46.988;15.470;2023-04-27T00:15:40;12.40;67.50
22006;DHT22;11167;46.988;15.470;2023-04-27T00:17:41;12.40;66.70
22006;DHT22;11167;46.988;15.470;2023-04-27T00:19:44;12.40;66.70
22006;DHT22;11167;46.988;15.470;2023-04-27T00:21:47;12.40;66.80
22006;DHT22;11167;46.988;15.470;2023-04-27T00:23:48;12.30;66.70
22006;DHT22;11167;46.988;15.470;2023-04-27T00:25:49;12.30;66.80
22006;DHT22;11167;46.988;15.470;2023-04-27T00:27:50;12.30;66.80
22006;DHT22;11167;46.988;15.470;2023-04-27T00:29:51;12.30;66.80
22006;DHT22;11167;46.988;15.470;2023-04-27T00:31:52;12.20;66.80
22006;DHT22;11167;46.988;15.470;2023-04-27T00:33:53;12.20;66.80
22006;DHT22;11167;46.988;15.470;2023-04-27T00:35:59;12.20;66.80
22006;DHT22;11167;46.988;15.470;2023-04-27T00:38:01;12.20;66.80
22006;DHT22;11167;46.988;15.470;2023-04-27T00:40:04;12.20;67.00
22006;DHT22;11167;46.988;15.470;2023-04-27T00:42:08;12.20;66.80
22006;DHT22;11167;46.988;15.470;2023-04-27T00:44:11;12.10;66.90
22006;DHT22;11167;46.988;15.470;2023-04-27T00:46:13;12.10;67.00
22006;DHT22;11167;46.988;15.470;2023-04-27T00:48:14;12.10;66.90
22006;DHT22;11167;46.988;15.470;2023-04-27T00:50:19;12.10;66.90
22006;DHT22;11167;46.988;15.470;2023-04-27T00:52:20;12.10;66.90
22006;DHT22;11167;46.988;15.470;2023-04-27T00:54:23;12.00;67.00
22006;DHT22;11167;46.988;15.470;2023-04-27T00:56:24;12.00;66.90
22006;DHT22;11167;46.988;15.470;2023-04-27T00:58:25;12.00;67.00
22006;DHT22;11167;46.988;15.470;2023-04-27T01:00:26;12.00;67.00
22006;DHT22;11167;46.988;15.470;2023-04-27T01:02:28;12.00;66.70
22006;DHT22;11167;46.988;15.470;2023-04-27T01:04:29;11.90;66.60
22006;DHT22;11167;46.988;15.470;2023-04-27T01:06:31;11.90;67.00
22006;DHT22;11167;46.988;15.470;2023-04-27T01:08:35;11.90;67.00
22006;DHT22;11167;46.988;15.470;2023-04-27T01:10:36;11.90;67.00
22006;DHT22;11167;46.988;15.470;2023-04-27T01:12:39;11.80;67.00
22006;DHT22;11167;46.988;15.470;2023-04-27T01:14:40;11.80;67.00
22006;DHT22;11167;46.988;15.470;2023-04-27T01:16:42;11.80;67.10
22006;DHT22;11167;46.988;15.470;2023-04-27T01:18:43;11.80;67.10
22006;DHT22;11167;46.988;15.470;2023-04-27T01:20:45;11.80;67.10
22006;DHT22;11167;46.988;15.470;2023-04-27T01:22:46;11.70;67.10
22006;DHT22;11167;46.988;15.470;2023-04-27T01:24:47;11.70;67.10
22006;DHT22;11167;46.988;15.470;2023-04-27T01:26:48;11.70;67.10
22006;DHT22;11167;46.988;15.470;2023-04-27T01:28:51;11.70;67.10
22006;DHT22;11167;46.988;15.470;2023-04-27T01:30:52;11.70;67.10
22006;DHT22;11167;46.988;15.470;2023-04-27T01:32:53;11.70;67.10
22006;DHT22;11167;46.988;15.470;2023-04-27T01:34:55;11.70;67.20
22006;DHT22;11167;46.988;15.470;2023-04-27T01:36:56;11.60;67.10
22006;DHT22;11167;46.988;15.470;2023-04-27T01:38:58;11.60;67.10
22006;DHT22;11167;46.988;15.470;2023-04-27T01:40:59;11.60;67.10
22006;DHT22;11167;46.988;15.470;2023-04-27T01:43:01;11.60;67.20
22006;DHT22;11167;46.988;15.470;2023-04-27T01:45:03;11.60;67.20
22006;DHT22;11167;46.988;15.470;2023-04-27T01:47:05;11.50;67.10
22006;DHT22;11167;46.988;15.470;2023-04-27T01:49:06;11.50;67.20
22006;DHT22;11167;46.988;15.470;2023-04-27T01:51:07;11.50;67.30
22006;DHT22;11167;46.988;15.470;2023-04-27T01:53:08;11.50;67.20
22006;DHT22;11167;46.988;15.470;2023-04-27T01:55:09;11.50;67.20
22006;DHT22;11167;46.988;15.470;2023-04-27T01:57:10;11.50;67.30
22006;DHT22;11167;46.988;15.470;2023-04-27T01:59:11;11.50;67.30
22006;DHT22;11167;46.988;15.470;2023-04-27T02:01:12;11.50;67.30
22006;DHT22;11167;46.988;15.470;2023-04-27T02:03:14;11.40;67.30
22006;DHT22;11167;46.988;15.470;2023-04-27T02:05:15;11.40;67.30
22006;DHT22;11167;46.988;15.470;2023-04-27T02:07:16;11.40;67.30
22006;DHT22;11167;46.988;15.470;2023-04-27T02:09:17;11.40;67.30
22006;DHT22;11167;46.988;15.470;2023-04-27T02:11:18;11.40;67.30
22006;DHT22;11167;46.988;15.470;2023-04-27T02:13:19;11.40;67.30
22006;DHT22;11167;46.988;15.470;2023-04-27T02:15:20;11.30;67.30
22006;DHT22;11167;46.988;15.470;2023-04-27T02:17:21;11.30;67.30
22006;DHT22;11167;46.988;15.470;2023-04-27T02:19:23;11.30;67.40
22006;DHT22;11167;46.988;15.470;2023-04-27T02:21:24;11.30;67.30
22006;DHT22;11167;46.988;15.470;2023-04-27T02:23:26;11.30;67.40
22006;DHT22;11167;46.988;15.470;2023-04-27T02:25:27;11.30;67.40
22006;DHT22;11167;46.988;15.470;2023-04-27T02:27:29;11.20;67.40
22006;DHT22;11167;46.988;15.470;2023-04-27T02:29:30;11.20;68.20
22006;DHT22;11167;46.988;15.470;2023-04-27T02:31:31;11.20;67.40
22006;DHT22;11167;46.988;15.470;2023-04-27T02:33:32;11.20;67.50
22006;DHT22;11167;46.988;15.470;2023-04-27T02:35:33;11.20;67.50
22006;DHT22;11167;46.988;15.470;2023-04-27T02:37:34;11.20;67.50
22006;DHT22;11167;46.988;15.470;2023-04-27T02:39:36;11.20;67.50
22006;DHT22;11167;46.988;15.470;2023-04-27T02:41:37;11.20;67.60
22006;DHT22;11167;46.988;15.470;2023-04-27T02:43:38;11.20;67.60
22006;DHT22;11167;46.988;15.470;2023-04-27T02:45:39;11.10;67.50
22006;DHT22;11167;46.988;15.470;2023-04-27T02:47:40;11.10;67.60
22006;DHT22;11167;46.988;15.470;2023-04-27T02:49:42;11.10;67.60
22006;DHT22;11167;46.988;15.470;2023-04-27T02:51:43;11.10;67.60
22006;DHT22;11167;46.988;15.470;2023-04-27T02:53:44;11.10;67.60
22006;DHT22;11167;46.988;15.470;2023-04-27T02:55:46;11.10;67.60
22006;DHT22;11167;46.988;15.470;2023-04-27T02:57:50;11.10;67.60
22006;DHT22;11167;46.988;15.470;2023-04-27T02:59:51;11.10;68.30
22006;DHT22;11167;46.988;15.470;2023-04-27T03:01:52;11.00;67.80
22006;DHT22;11167;46.988;15.470;2023-04-27T03:03:53;11.00;67.70
22006;DHT22;11167;46.988;15.470;2023-04-27T03:05:54;11.00;67.80
22006;DHT22;11167;46.988;15.470;2023-04-27T03:07:55;11.00;67.80
22006;DHT22;11167;46.988;15.470;2023-04-27T03:09:57;11.00;67.80
22006;DHT22;11167;46.988;15.470;2023-04-27T03:11:58;11.00;67.80
22006;DHT22;11167;46.988;15.470;2023-04-27T03:13:59;11.00;67.80
22006;DHT22;11167;46.988;15.470;2023-04-27T03:16:01;11.00;67.80
22006;DHT22;11167;46.988;15.470;2023-04-27T03:18:02;11.00;67.80
22006;DHT22;11167;46.988;15.470;2023-04-27T03:20:04;11.00;67.80
22006;DHT22;11167;46.988;15.470;2023-04-27T03:22:07;11.00;68.00
22006;DHT22;11167;46.988;15.470;2023-04-27T03:24:08;11.00;68.60
22006;DHT22;11167;46.988;15.470;2023-04-27T03:26:11;10.90;68.00
22006;DHT22;11167;46.988;15.470;2023-04-27T03:28:12;10.90;68.00
22006;DHT22;11167;46.988;15.470;2023-04-27T03:30:13;10.90;68.00
22006;DHT22;11167;46.988;15.470;2023-04-27T03:32:14;10.90;68.80
22006;DHT22;11167;46.988;15.470;2023-04-27T03:34:16;10.90;68.00
22006;DHT22;11167;46.988;15.470;2023-04-27T03:36:17;10.90;68.00
22006;DHT22;11167;46.988;15.470;2023-04-27T03:38:18;10.90;68.00
22006;DHT22;11167;46.988;15.470;2023-04-27T03:40:19;10.90;68.00
22006;DHT22;11167;46.988;15.470;2023-04-27T03:42:20;10.90;68.00
22006;DHT22;11167;46.988;15.470;2023-04-27T03:44:21;10.90;68.10
22006;DHT22;11167;46.988;15.470;2023-04-27T03:46:23;10.90;68.00
22006;DHT22;11167;46.988;15.470;2023-04-27T03:48:25;10.80;68.00
22006;DHT22;11167;46.988;15.470;2023-04-27T03:50:26;10.80;68.00
22006;DHT22;11167;46.988;15.470;2023-04-27T03:52:27;10.80;68.10
22006;DHT22;11167;46.988;15.470;2023-04-27T03:54:30;10.80;68.10
22006;DHT22;11167;46.988;15.470;2023-04-27T03:56:31;10.80;68.10
22006;DHT22;11167;46.988;15.470;2023-04-27T03:58:32;10.80;68.10
22006;DHT22;11167;46.988;15.470;2023-04-27T04:00:33;10.80;68.20
22006;DHT22;11167;46.988;15.470;2023-04-27T04:02:34;10.80;68.20
22006;DHT22;11167;46.988;15.470;2023-04-27T04:04:36;10.80;68.20
22006;DHT22;11167;46.988;15.470;2023-04-27T04:06:37;10.80;68.20
22006;DHT22;11167;46.988;15.470;2023-04-27T04:08:38;10.80;68.20
22006;DHT22;11167;46.988;15.470;2023-04-27T04:10:39;10.70;68.20
22006;DHT22;11167;46.988;15.470;2023-04-27T04:12:40;10.70;68.20
22006;DHT22;11167;46.988;15.470;2023-04-27T04:14:41;10.70;67.60
22006;DHT22;11167;46.988;15.470;2023-04-27T04:16:42;10.70;68.20
22006;DHT22;11167;46.988;15.470;2023-04-27T04:18:43;10.70;68.30
22006;DHT22;11167;46.988;15.470;2023-04-27T04:20:44;10.70;67.70
22006;DHT22;11167;46.988;15.470;2023-04-27T04:22:46;10.70;68.30
22006;DHT22;11167;46.988;15.470;2023-04-27T04:24:47;10.70;68.30
22006;DHT22;11167;46.988;15.470;2023-04-27T04:26:48;10.70;68.30
22006;DHT22;11167;46.988;15.470;2023-04-27T04:28:49;10.70;68.30
22006;DHT22;11167;46.988;15.470;2023-04-27T04:30:51;10.70;68.30
22006;DHT22;11167;46.988;15.470;2023-04-27T04:32:52;10.70;68.30
22006;DHT22;11167;46.988;15.470;2023-04-27T04:34:54;10.60;68.30
22006;DHT22;11167;46.988;15.470;2023-04-27T04:36:56;10.60;68.30
22006;DHT22;11167;46.988;15.470;2023-04-27T04:38:57;10.60;68.30
22006;DHT22;11167;46.988;15.470;2023-04-27T04:40:58;10.60;68.30
22006;DHT22;11167;46.988;15.470;2023-04-27T04:42:59;10.60;68.40
22006;DHT22;11167;46.988;15.470;2023-04-27T04:45:00;10.60;68.40
22006;DHT22;11167;46.988;15.470;2023-04-27T04:47:01;10.60;68.40
22006;DHT22;11167;46.988;15.470;2023-04-27T04:49:03;10.60;69.40
22006;DHT22;11167;46.988;15.470;2023-04-27T04:51:05;10.50;68.40
22006;DHT22;11167;46.988;15.470;2023-04-27T04:53:07;10.60;68.50
22006;DHT22;11167;46.988;15.470;2023-04-27T04:55:08;10.50;68.40
22006;DHT22;11167;46.988;15.470;2023-04-27T04:57:10;10.50;68.50
22006;DHT22;11167;46.988;15.470;2023-04-27T04:59:11;10.50;68.50
22006;DHT22;11167;46.988;15.470;2023-04-27T05:01:12;10.50;68.50
22006;DHT22;11167;46.988;15.470;2023-04-27T05:03:13;10.50;68.50
22006;DHT22;11167;46.988;15.470;2023-04-27T05:05:14;10.50;68.50
22006;DHT22;11167;46.988;15.470;2023-04-27T05:07:16;10.50;68.50
22006;DHT22;11167;46.988;15.470;2023-04-27T05:09:17;10.50;68.50
22006;DHT22;11167;46.988;15.470;2023-04-27T05:11:18;10.50;68.60
22006;DHT22;11167;46.988;15.470;2023-04-27T05:13:20;10.50;68.60
22006;DHT22;11167;46.988;15.470;2023-04-27T05:15:21;10.50;68.60
22006;DHT22;11167;46.988;15.470;2023-04-27T05:17:22;10.50;68.60
22006;DHT22;11167;46.988;15.470;2023-04-27T05:19:23;10.50;68.60
22006;DHT22;11167;46.988;15.470;2023-04-27T05:21:25;10.50;68.70
22006;DHT22;11167;46.988;15.470;2023-04-27T05:23:26;10.40;68.50
22006;DHT22;11167;46.988;15.470;2023-04-27T05:25:31;10.40;68.60
22006;DHT22;11167;46.988;15.470;2023-04-27T05:27:32;10.40;68.60
22006;DHT22;11167;46.988;15.470;2023-04-27T05:29:33;10.40;68.60
22006;DHT22;11167;46.988;15.470;2023-04-27T05:31:34;10.40;69.50
22006;DHT22;11167;46.988;15.470;2023-04-27T05:33:36;10.40;68.70
22006;DHT22;11167;46.988;15.470;2023-04-27T05:35:37;10.40;68.70
22006;DHT22;11167;46.988;15.470;2023-04-27T05:37:39;10.40;68.70
22006;DHT22;11167;46.988;15.470;2023-04-27T05:39:40;10.40;68.70
22006;DHT22;11167;46.988;15.470;2023-04-27T05:41:42;10.40;68.70
22006;DHT22;11167;46.988;15.470;2023-04-27T05:43:44;10.40;69.60
22006;DHT22;11167;46.988;15.470;2023-04-27T05:45:45;10.40;69.10
22006;DHT22;11167;46.988;15.470;2023-04-27T05:47:46;10.40;68.70
22006;DHT22;11167;46.988;15.470;2023-04-27T05:49:50;10.40;68.70
22006;DHT22;11167;46.988;15.470;2023-04-27T05:51:55;10.40;68.70
22006;DHT22;11167;46.988;15.470;2023-04-27T05:53:58;10.40;68.70
22006;DHT22;11167;46.988;15.470;2023-04-27T05:56:21;10.40;68.80
22006;DHT22;11167;46.988;15.470;2023-04-27T05:58:22;10.40;68.80
22006;DHT22;11167;46.988;15.470;2023-04-27T06:00:23;10.40;68.90
22006;DHT22;11167;46.988;15.470;2023-04-27T06:02:24;10.40;68.90
22006;DHT22;11167;46.988;15.470;2023-04-27T06:04:25;10.40;68.90
22006;DHT22;11167;46.988;15.470;2023-04-27T06:06:26;10.40;68.80
22006;DHT22;11167;46.988;15.470;2023-04-27T06:08:29;10.40;68.80
22006;DHT22;11167;46.988;15.470;2023-04-27T06:10:31;10.40;68.80
22006;DHT22;11167;46.988;15.470;2023-04-27T06:12:33;10.40;68.80
22006;DHT22;11167;46.988;15.470;2023-04-27T06:14:35;10.40;68.80
22006;DHT22;11167;46.988;15.470;2023-04-27T06:16:37;10.40;68.80
22006;DHT22;11167;46.988;15.470;2023-04-27T06:18:40;10.40;68.90
22006;DHT22;11167;46.988;15.470;2023-04-27T06:20:41;10.40;68.80
22006;DHT22;11167;46.988;15.470;2023-04-27T06:22:42;10.40;68.80
22006;DHT22;11167;46.988;15.470;2023-04-27T06:24:43;10.40;68.90
22006;DHT22;11167;46.988;15.470;2023-04-27T06:26:44;10.40;68.90
22006;DHT22;11167;46.988;15.470;2023-04-27T06:28:45;10.40;68.90
22006;DHT22;11167;46.988;15.470;2023-04-27T06:30:46;10.40;68.80
22006;DHT22;11167;46.988;15.470;2023-04-27T06:32:48;10.40;68.80
22006;DHT22;11167;46.988;15.470;2023-04-27T06:34:49;10.40;69.00
22006;DHT22;11167;46.988;15.470;2023-04-27T06:36:51;10.40;68.80
22006;DHT22;11167;46.988;15.470;2023-04-27T06:38:52;10.40;68.80
22006;DHT22;11167;46.988;15.470;2023-04-27T06:40:55;10.40;68.80
22006;DHT22;11167;46.988;15.470;2023-04-27T06:42:56;10.40;68.90
22006;DHT22;11167;46.988;15.470;2023-04-27T06:44:57;10.40;68.80
22006;DHT22;11167;46.988;15.470;2023-04-27T06:46:59;10.40;68.90
22006;DHT22;11167;46.988;15.470;2023-04-27T06:49:00;10.40;68.80
22006;DHT22;11167;46.988;15.470;2023-04-27T06:51:02;10.40;68.90
22006;DHT22;11167;46.988;15.470;2023-04-27T06:53:03;10.40;68.90
22006;DHT22;11167;46.988;15.470;2023-04-27T06:55:04;10.40;68.80
22006;DHT22;11167;46.988;15.470;2023-04-27T06:57:06;10.40;68.80
22006;DHT22;11167;46.988;15.470;2023-04-27T06:59:07;10.40;68.80
22006;DHT22;11167;46.988;15.470;2023-04-27T07:01:08;10.40;68.80
22006;DHT22;11167;46.988;15.470;2023-04-27T07:03:09;10.40;68.90
22006;DHT22;11167;46.988;15.470;2023-04-27T07:05:10;10.40;68.90
22006;DHT22;11167;46.988;15.470;2023-04-27T07:07:11;10.50;68.90
22006;DHT22;11167;46.988;15.470;2023-04-27T07:09:13;10.40;68.80
22006;DHT22;11167;46.988;15.470;2023-04-27T07:11:14;10.50;68.90
22006;DHT22;11167;46.988;15.470;2023-04-27T07:13:16;10.50;68.90
22006;DHT22;11167;46.988;15.470;2023-04-27T07:15:17;10.50;68.90
22006;DHT22;11167;46.988;15.470;2023-04-27T07:17:18;10.50;68.80
22006;DHT22;11167;46.988;15.470;2023-04-27T07:19:19;10.50;68.90
22006;DHT22;11167;46.988;15.470;2023-04-27T07:21:20;10.50;68.80
22006;DHT22;11167;46.988;15.470;2023-04-27T07:23:21;10.50;68.80
22006;DHT22;11167;46.988;15.470;2023-04-27T07:25:23;10.50;68.80
22006;DHT22;11167;46.988;15.470;2023-04-27T07:27:25;10.50;68.80
22006;DHT22;11167;46.988;15.470;2023-04-27T07:29:27;10.50;68.80
22006;DHT22;11167;46.988;15.470;2023-04-27T07:31:29;10.50;68.80
22006;DHT22;11167;46.988;15.470;2023-04-27T07:33:32;10.50;68.80
22006;DHT22;11167;46.988;15.470;2023-04-27T07:35:33;10.50;68.90
22006;DHT22;11167;46.988;15.470;2023-04-27T07:37:35;10.50;68.80
22006;DHT22;11167;46.988;15.470;2023-04-27T07:39:37;10.50;68.80
22006;DHT22;11167;46.988;15.470;2023-04-27T07:41:38;10.60;68.80
22006;DHT22;11167;46.988;15.470;2023-04-27T07:43:39;10.60;68.80
22006;DHT22;11167;46.988;15.470;2023-04-27T07:45:42;10.60;68.90
22006;DHT22;11167;46.988;15.470;2023-04-27T07:47:43;10.60;68.80
22006;DHT22;11167;46.988;15.470;2023-04-27T07:49:45;10.60;68.70
22006;DHT22;11167;46.988;15.470;2023-04-27T07:51:46;10.60;68.70
22006;DHT22;11167;46.988;15.470;2023-04-27T07:53:48;10.60;68.70
22006;DHT22;11167;46.988;15.470;2023-04-27T07:55:48;10.60;68.70
22006;DHT22;11167;46.988;15.470;2023-04-27T07:57:58;10.60;68.70
22006;DHT22;11167;46.988;15.470;2023-04-27T07:59:56;10.60;68.70
22006;DHT22;11167;46.988;15.470;2023-04-27T08:01:58;10.60;68.70
22006;DHT22;11167;46.988;15.470;2023-04-27T08:03:59;10.70;68.70
22006;DHT22;11167;46.988;15.470;2023-04-27T08:06:00;10.60;68.70
22006;DHT22;11167;46.988;15.470;2023-04-27T08:08:01;10.70;68.70
22006;DHT22;11167;46.988;15.470;2023-04-27T08:10:03;10.70;68.70
22006;DHT22;11167;46.988;15.470;2023-04-27T08:12:04;10.70;68.70
22006;DHT22;11167;46.988;15.470;2023-04-27T08:14:05;10.70;68.70
22006;DHT22;11167;46.988;15.470;2023-04-27T08:16:08;10.70;68.70
22006;DHT22;11167;46.988;15.470;2023-04-27T08:18:09;10.70;68.70
22006;DHT22;11167;46.988;15.470;2023-04-27T08:20:10;10.70;68.60
22006;DHT22;11167;46.988;15.470;2023-04-27T08:22:11;10.70;68.50
22006;DHT22;11167;46.988;15.470;2023-04-27T08:24:13;10.80;68.60
22006;DHT22;11167;46.988;15.470;2023-04-27T08:26:14;10.80;68.60
22006;DHT22;11167;46.988;15.470;2023-04-27T08:28:16;10.80;68.60
22006;DHT22;11167;46.988;15.470;2023-04-27T08:30:17;10.80;68.60
22006;DHT22;11167;46.988;15.470;2023-04-27T08:32:18;10.80;68.50
22006;DHT22;11167;46.988;15.470;2023-04-27T08:34:19;10.80;68.70
22006;DHT22;11167;46.988;15.470;2023-04-27T08:36:21;10.80;68.50
22006;DHT22;11167;46.988;15.470;2023-04-27T08:38:24;10.80;68.50
22006;DHT22;11167;46.988;15.470;2023-04-27T08:40:25;10.80;68.50
22006;DHT22;11167;46.988;15.470;2023-04-27T08:42:26;10.80;68.60
22006;DHT22;11167;46.988;15.470;2023-04-27T08:44:27;10.90;68.60
22006;DHT22;11167;46.988;15.470;2023-04-27T08:46:30;10.90;68.60
22006;DHT22;11167;46.988;15.470;2023-04-27T08:48:32;10.90;69.40
22006;DHT22;11167;46.988;15.470;2023-04-27T08:50:35;10.90;68.60
22006;DHT22;11167;46.988;15.470;2023-04-27T08:52:37;10.90;68.60
22006;DHT22;11167;46.988;15.470;2023-04-27T08:54:39;10.90;68.50
22006;DHT22;11167;46.988;15.470;2023-04-27T08:56:40;10.90;68.50
22006;DHT22;11167;46.988;15.470;2023-04-27T08:58:42;11.00;68.70
22006;DHT22;11167;46.988;15.470;2023-04-27T09:00:44;11.00;68.70
22006;DHT22;11167;46.988;15.470;2023-04-27T09:02:46;11.00;68.70
22006;DHT22;11167;46.988;15.470;2023-04-27T09:04:48;11.00;68.70
22006;DHT22;11167;46.988;15.470;2023-04-27T09:06:51;11.00;68.70
22006;DHT22;11167;46.988;15.470;2023-04-27T09:08:52;11.00;68.70
22006;DHT22;11167;46.988;15.470;2023-04-27T09:10:52;11.10;68.80
22006;DHT22;11167;46.988;15.470;2023-04-27T09:12:58;11.10;68.70
22006;DHT22;11167;46.988;15.470;2023-04-27T09:15:00;11.10;68.70
22006;DHT22;11167;46.988;15.470;2023-04-27T09:17:04;11.10;68.70
22006;DHT22;11167;46.988;15.470;2023-04-27T09:19:05;11.10;68.70
22006;DHT22;11167;46.988;15.470;2023-04-27T09:21:06;11.20;68.80
22006;DHT22;11167;46.988;15.470;2023-04-27T09:23:08;11.20;68.90
22006;DHT22;11167;46.988;15.470;2023-04-27T09:25:09;11.20;68.90
22006;DHT22;11167;46.988;15.470;2023-04-27T09:27:17;11.30;69.00
22006;DHT22;11167;46.988;15.470;2023-04-27T09:29:16;11.30;69.00
22006;DHT22;11167;46.988;15.470;2023-04-27T09:31:17;11.30;69.00
22006;DHT22;11167;46.988;15.470;2023-04-27T09:33:31;11.40;69.00
22006;DHT22;11167;46.988;15.470;2023-04-27T09:35:33;11.40;69.00
22006;DHT22;11167;46.988;15.470;2023-04-27T09:37:34;11.40;69.00
22006;DHT22;11167;46.988;15.470;2023-04-27T09:39:35;11.40;69.00
22006;DHT22;11167;46.988;15.470;2023-04-27T09:41:37;11.50;69.20
22006;DHT22;11167;46.988;15.470;2023-04-27T09:43:41;11.50;69.20
22006;DHT22;11167;46.988;15.470;2023-04-27T09:45:42;11.50;69.20
22006;DHT22;11167;46.988;15.470;2023-04-27T09:47:44;11.50;69.20
22006;DHT22;11167;46.988;15.470;2023-04-27T09:49:46;11.60;69.30
22006;DHT22;11167;46.988;15.470;2023-04-27T09:51:49;11.60;69.30
22006;DHT22;11167;46.988;15.470;2023-04-27T09:53:53;11.60;69.40
22006;DHT22;11167;46.988;15.470;2023-04-27T10:03:14;11.80;69.50
22006;DHT22;11167;46.988;15.470;2023-04-27T10:05:29;11.80;69.60
22006;DHT22;11167;46.988;15.470;2023-04-27T10:07:28;11.80;69.60
22006;DHT22;11167;46.988;15.470;2023-04-27T10:09:39;11.90;69.70
22006;DHT22;11167;46.988;15.470;2023-04-27T10:11:41;11.90;69.60
22006;DHT22;11167;46.988;15.470;2023-04-27T10:13:53;11.90;69.70
22006;DHT22;11167;46.988;15.470;2023-04-27T10:15:55;11.90;69.70
22006;DHT22;11167;46.988;15.470;2023-04-27T10:18:02;12.00;69.70
22006;DHT22;11167;46.988;15.470;2023-04-27T10:20:04;12.00;69.70
22006;DHT22;11167;46.988;15.470;2023-04-27T10:22:07;12.10;69.80
22006;DHT22;11167;46.988;15.470;2023-04-27T10:24:08;12.10;70.00
22006;DHT22;11167;46.988;15.470;2023-04-27T10:26:10;12.10;69.70
22006;DHT22;11167;46.988;15.470;2023-04-27T10:28:15;12.20;69.70
22006;DHT22;11167;46.988;15.470;2023-04-27T10:30:18;12.20;69.70
22006;DHT22;11167;46.988;15.470;2023-04-27T10:32:22;12.30;69.80
22006;DHT22;11167;46.988;15.470;2023-04-27T10:34:26;12.30;69.80
22006;DHT22;11167;46.988;15.470;2023-04-27T10:36:33;12.40;69.90
22006;DHT22;11167;46.988;15.470;2023-04-27T10:38:38;12.40;69.90
22006;DHT22;11167;46.988;15.470;2023-04-27T10:40:39;12.50;69.90
22006;DHT22;11167;46.988;15.470;2023-04-27T10:42:41;12.50;69.90
22006;DHT22;11167;46.988;15.470;2023-04-27T10:44:52;12.50;69.90
22006;DHT22;11167;46.988;15.470;2023-04-27T10:46:55;12.60;70.00
22006;DHT22;11167;46.988;15.470;2023-04-27T10:48:59;12.60;70.00
22006;DHT22;11167;46.988;15.470;2023-04-27T10:51:00;12.70;70.00
22006;DHT22;11167;46.988;15.470;2023-04-27T10:53:04;12.70;70.00
22006;DHT22;11167;46.988;15.470;2023-04-27T10:55:16;12.80;70.00
22006;DHT22;11167;46.988;15.470;2023-04-27T10:57:17;12.80;70.00
22006;DHT22;11167;46.988;15.470;2023-04-27T10:59:18;12.80;70.10
22006;DHT22;11167;46.988;15.470;2023-04-27T11:01:26;12.90;71.00
22006;DHT22;11167;46.988;15.470;2023-04-27T11:03:29;12.90;70.10
22006;DHT22;11167;46.988;15.470;2023-04-27T11:05:31;13.00;70.10
22006;DHT22;11167;46.988;15.470;2023-04-27T11:07:33;13.00;70.10
22006;DHT22;11167;46.988;15.470;2023-04-27T11:09:37;13.10;70.10
22006;DHT22;11167;46.988;15.470;2023-04-27T11:11:43;13.10;70.30
22006;DHT22;11167;46.988;15.470;2023-04-27T11:13:48;13.20;70.30
22006;DHT22;11167;46.988;15.470;2023-04-27T11:15:55;13.20;70.30
22006;DHT22;11167;46.988;15.470;2023-04-27T11:18:05;13.30;70.40
22006;DHT22;11167;46.988;15.470;2023-04-27T11:20:07;13.30;70.30
22006;DHT22;11167;46.988;15.470;2023-04-27T11:22:09;13.40;70.50
22006;DHT22;11167;46.988;15.470;2023-04-27T11:24:11;13.40;70.40
22006;DHT22;11167;46.988;15.470;2023-04-27T11:26:20;13.50;70.40
22006;DHT22;11167;46.988;15.470;2023-04-27T11:28:22;13.50;70.70
22006;DHT22;11167;46.988;15.470;2023-04-27T11:30:24;13.60;70.50
22006;DHT22;11167;46.988;15.470;2023-04-27T11:32:25;13.60;70.40
22006;DHT22;11167;46.988;15.470;2023-04-27T11:34:26;13.70;70.50
22006;DHT22;11167;46.988;15.470;2023-04-27T11:36:27;13.70;71.30
22006;DHT22;11167;46.988;15.470;2023-04-27T11:38:32;13.80;70.50
22006;DHT22;11167;46.988;15.470;2023-04-27T11:40:33;13.80;70.50
22006;DHT22;11167;46.988;15.470;2023-04-27T11:42:36;13.90;70.60
22006;DHT22;11167;46.988;15.470;2023-04-27T11:44:37;13.90;70.50
22006;DHT22;11167;46.988;15.470;2023-04-27T11:46:43;14.00;70.50
22006;DHT22;11167;46.988;15.470;2023-04-27T11:48:44;14.00;70.60
22006;DHT22;11167;46.988;15.470;2023-04-27T11:50:46;14.10;70.30
22006;DHT22;11167;46.988;15.470;2023-04-27T11:52:49;14.10;70.60
22006;DHT22;11167;46.988;15.470;2023-04-27T11:54:52;14.20;70.60
22006;DHT22;11167;46.988;15.470;2023-04-27T11:57:03;14.20;70.60
22006;DHT22;11167;46.988;15.470;2023-04-27T11:59:16;14.30;71.00
22006;DHT22;11167;46.988;15.470;2023-04-27T12:01:09;14.30;70.60
22006;DHT22;11167;46.988;15.470;2023-04-27T12:03:11;14.40;70.60
22006;DHT22;11167;46.988;15.470;2023-04-27T12:05:13;14.40;70.50
22006;DHT22;11167;46.988;15.470;2023-04-27T12:07:15;14.50;70.60
22006;DHT22;11167;46.988;15.470;2023-04-27T12:09:16;14.50;70.60
22006;DHT22;11167;46.988;15.470;2023-04-27T12:11:17;14.50;70.60
22006;DHT22;11167;46.988;15.470;2023-04-27T12:13:18;14.60;70.60
22006;DHT22;11167;46.988;15.470;2023-04-27T12:15:19;14.60;70.70
22006;DHT22;11167;46.988;15.470;2023-04-27T12:17:20;14.70;70.70
22006;DHT22;11167;46.988;15.470;2023-04-27T12:19:22;14.70;70.60
22006;DHT22;11167;46.988;15.470;2023-04-27T12:21:25;14.80;70.70
22006;DHT22;11167;46.988;15.470;2023-04-27T12:23:26;14.80;70.60
22006;DHT22;11167;46.988;15.470;2023-04-27T12:25:28;14.80;70.60
22006;DHT22;11167;46.988;15.470;2023-04-27T12:27:29;14.90;70.70
22006;DHT22;11167;46.988;15.470;2023-04-27T12:29:30;14.90;70.70
22006;DHT22;11167;46.988;15.470;2023-04-27T12:31:31;14.90;70.60
22006;DHT22;11167;46.988;15.470;2023-04-27T12:33:33;15.00;70.70
22006;DHT22;11167;46.988;15.470;2023-04-27T12:35:34;15.00;70.60
22006;DHT22;11167;46.988;15.470;2023-04-27T12:37:36;15.00;70.60
22006;DHT22;11167;46.988;15.470;2023-04-27T12:39:37;15.10;70.70
22006;DHT22;11167;46.988;15.470;2023-04-27T12:41:38;15.10;70.50
22006;DHT22;11167;46.988;15.470;2023-04-27T12:43:40;15.10;70.50
22006;DHT22;11167;46.988;15.470;2023-04-27T12:45:42;15.20;70.60